sensor_id;sensor_type;location;lat;lon;timestamp;pressure;altitude;pressure_sealevel;temperature;humidity
3132;BME280;62090;52.330;9.104;2023-02-10T00:02:09;102849.44;;;4.56;84.76
3132;BME280;62090;52.330;9.104;2023-02-10T00:04:38;102814.84;;;4.45;85.08
3132;BME280;62090;52.330;9.104;2023-02-10T00:07:11;102821.44;;;4.43;85.24
3132;BME280;62090;52.330;9.104;2023-02-10T00:09:40;102864.84;;;4.59;86.03
3132;BME280;62090;52.330;9.104;2023-02-10T00:12:10;102810.31;;;4.51;85.14
3132;BME280;62090;52.330;9.104;2023-02-10T00:14:40;102815.47;;;4.62;85.17
3132;BME280;62090;52.330;9.104;2023-02-10T00:17:10;102810.56;;;4.54;84.92
3132;BME280;62090;52.330;9.104;2023-02-10T00:19:39;102849.78;;;4.71;85.28
3132;BME280;62090;52.330;9.104;2023-02-10T00:22:12;102878.06;;;4.87;86.42
3132;BME280;62090;52.330;9.104;2023-02-10T00:24:41;102874.56;;;4.85;86.20
3132;BME280;62090;52.330;9.104;2023-02-10T00:27:11;102853.72;;;4.77;85.88
3132;BME280;62090;52.330;9.104;2023-02-10T00:29:41;102879.06;;;4.99;85.64
3132;BME280;62090;52.330;9.104;2023-02-10T00:32:11;102879.56;;;5.05;84.94
3132;BME280;62090;52.330;9.104;2023-02-10T00:34:41;102838.19;;;4.83;85.00
3132;BME280;62090;52.330;9.104;2023-02-10T00:37:15;102858.63;;;4.96;84.38
3132;BME280;62090;52.330;9.104;2023-02-10T00:39:44;102875.81;;;4.90;85.56
3132;BME280;62090;52.330;9.104;2023-02-10T00:42:14;102774.75;;;4.28;85.93
3132;BME280;62090;52.330;9.104;2023-02-10T00:44:44;102845.66;;;4.61;86.73
3132;BME280;62090;52.330;9.104;2023-02-10T00:47:14;102881.13;;;4.83;87.16
3132;BME280;62090;52.330;9.104;2023-02-10T00:49:44;102740.44;;;3.99;86.73
3132;BME280;62090;52.330;9.104;2023-02-10T00:52:16;102837.97;;;4.70;86.49
3132;BME280;62090;52.330;9.104;2023-02-10T00:54:46;102863.31;;;4.81;86.20
3132;BME280;62090;52.330;9.104;2023-02-10T00:57:15;102888.81;;;4.84;86.25
3132;BME280;62090;52.330;9.104;2023-02-10T00:59:46;102872.28;;;4.78;86.01
3132;BME280;62090;52.330;9.104;2023-02-10T01:02:16;102859.66;;;4.67;85.98
3132;BME280;62090;52.330;9.104;2023-02-10T01:04:46;102871.41;;;4.77;86.03
3132;BME280;62090;52.330;9.104;2023-02-10T01:07:18;102904.97;;;5.06;85.71
3132;BME280;62090;52.330;9.104;2023-02-10T01:09:48;102889.06;;;4.97;85.67
3132;BME280;62090;52.330;9.104;2023-02-10T01:12:18;102862.44;;;4.81;85.75
3132;BME280;62090;52.330;9.104;2023-02-10T01:14:47;102879.84;;;4.88;85.82
3132;BME280;62090;52.330;9.104;2023-02-10T01:17:17;102876.56;;;4.89;85.57
3132;BME280;62090;52.330;9.104;2023-02-10T01:19:47;102910.94;;;4.97;86.43
3132;BME280;62090;52.330;9.104;2023-02-10T01:22:20;102904.09;;;5.06;86.66
3132;BME280;62090;52.330;9.104;2023-02-10T01:24:50;102877.81;;;4.94;86.14
3132;BME280;62090;52.330;9.104;2023-02-10T01:27:21;102898.91;;;4.94;87.27
3132;BME280;62090;52.330;9.104;2023-02-10T01:29:50;102895.38;;;4.82;87.84
3132;BME280;62090;52.330;9.104;2023-02-10T01:32:20;102857.66;;;4.53;88.68
3132;BME280;62090;52.330;9.104;2023-02-10T01:34:50;102897.53;;;4.78;88.70
3132;BME280;62090;52.330;9.104;2023-02-10T01:37:22;102790.50;;;4.15;88.91
3132;BME280;62090;52.330;9.104;2023-02-10T01:39:52;102865.97;;;4.42;89.17
3132;BME280;62090;52.330;9.104;2023-02-10T01:42:21;102861.28;;;4.16;90.95
3132;BME280;62090;52.330;9.104;2023-02-10T01:45:14;102875.44;;;4.45;90.08
3132;BME280;62090;52.330;9.104;2023-02-10T01:47:46;102857.75;;;4.35;90.42
3132;BME280;62090;52.330;9.104;2023-02-10T01:50:20;102887.94;;;4.43;91.19
3132;BME280;62090;52.330;9.104;2023-02-10T01:52:54;102857.25;;;4.29;91.33
3132;BME280;62090;52.330;9.104;2023-02-10T01:55:28;102798.81;;;4.04;90.70
3132;BME280;62090;52.330;9.104;2023-02-10T01:58:02;102888.31;;;4.58;90.57
3132;BME280;62090;52.330;9.104;2023-02-10T02:00:34;102885.03;;;4.39;91.16
3132;BME280;62090;52.330;9.104;2023-02-10T02:03:04;102813.06;;;4.03;91.85
3132;BME280;62090;52.330;9.104;2023-02-10T02:05:37;102876.69;;;4.40;92.18
3132;BME280;62090;52.330;9.104;2023-02-10T02:08:13;102833.16;;;4.32;91.39
3132;BME280;62090;52.330;9.104;2023-02-10T02:10:54;102856.50;;;4.50;90.69
3132;BME280;62090;52.330;9.104;2023-02-10T02:16:47;102837.06;;;4.29;92.23
3132;BME280;62090;52.330;9.104;2023-02-10T02:22:59;102852.19;;;4.29;91.53
3132;BME280;62090;52.330;9.104;2023-02-10T02:25:53;102888.47;;;4.49;92.40
3132;BME280;62090;52.330;9.104;2023-02-10T02:28:34;102885.66;;;4.56;92.31
3132;BME280;62090;52.330;9.104;2023-02-10T02:31:28;102889.59;;;4.63;92.53
3132;BME280;62090;52.330;9.104;2023-02-10T02:34:01;102794.41;;;4.01;93.07
3132;BME280;62090;52.330;9.104;2023-02-10T02:36:36;102849.19;;;4.33;93.00
3132;BME280;62090;52.330;9.104;2023-02-10T02:39:06;102836.56;;;4.22;92.97
3132;BME280;62090;52.330;9.104;2023-02-10T02:41:36;102866.34;;;4.47;92.73
3132;BME280;62090;52.330;9.104;2023-02-10T02:44:06;102863.69;;;4.45;92.41
3132;BME280;62090;52.330;9.104;2023-02-10T02:46:48;102826.59;;;4.24;92.92
3132;BME280;62090;52.330;9.104;2023-02-10T02:49:27;102766.16;;;3.85;94.01
3132;BME280;62090;52.330;9.104;2023-02-10T02:52:04;102878.22;;;4.48;93.99
3132;BME280;62090;52.330;9.104;2023-02-10T02:54:42;102870.66;;;4.48;93.16
3132;BME280;62090;52.330;9.104;2023-02-10T02:57:19;102807.25;;;3.94;93.85
3132;BME280;62090;52.330;9.104;2023-02-10T02:59:56;102812.50;;;3.77;94.48
3132;BME280;62090;52.330;9.104;2023-02-10T03:02:31;102848.13;;;4.00;95.31
3132;BME280;62090;52.330;9.104;2023-02-10T03:05:02;102827.19;;;3.91;94.83
3132;BME280;62090;52.330;9.104;2023-02-10T03:07:32;102871.00;;;4.22;94.72
3132;BME280;62090;52.330;9.104;2023-02-10T03:10:03;102834.41;;;4.07;94.01
3132;BME280;62090;52.330;9.104;2023-02-10T03:12:32;102791.81;;;3.71;94.44
3132;BME280;62090;52.330;9.104;2023-02-10T03:15:02;102870.22;;;4.13;94.94
3132;BME280;62090;52.330;9.104;2023-02-10T03:17:35;102818.31;;;3.86;94.26
3132;BME280;62090;52.330;9.104;2023-02-10T03:20:06;102866.06;;;4.13;94.75
3132;BME280;62090;52.330;9.104;2023-02-10T03:22:35;102783.72;;;3.65;94.96
3132;BME280;62090;52.330;9.104;2023-02-10T03:25:05;102836.41;;;3.91;95.60
3132;BME280;62090;52.330;9.104;2023-02-10T03:27:35;102822.88;;;3.80;95.54
3132;BME280;62090;52.330;9.104;2023-02-10T03:30:06;102843.31;;;3.83;95.14
3132;BME280;62090;52.330;9.104;2023-02-10T03:32:38;102839.75;;;3.81;95.72
3132;BME280;62090;52.330;9.104;2023-02-10T03:35:08;102846.31;;;3.79;95.68
3132;BME280;62090;52.330;9.104;2023-02-10T03:37:37;102828.28;;;3.74;94.75
3132;BME280;62090;52.330;9.104;2023-02-10T03:40:08;102864.88;;;3.90;94.78
3132;BME280;62090;52.330;9.104;2023-02-10T03:42:38;102886.50;;;4.06;94.64
3132;BME280;62090;52.330;9.104;2023-02-10T03:45:08;102889.41;;;4.11;94.35
3132;BME280;62090;52.330;9.104;2023-02-10T03:47:41;102892.81;;;4.11;94.48
3132;BME280;62090;52.330;9.104;2023-02-10T03:50:10;102850.63;;;3.80;94.77
3132;BME280;62090;52.330;9.104;2023-02-10T03:52:40;102798.84;;;3.55;94.97
3132;BME280;62090;52.330;9.104;2023-02-10T03:55:09;102886.34;;;3.95;96.17
3132;BME280;62090;52.330;9.104;2023-02-10T03:57:44;102864.59;;;3.76;96.00
3132;BME280;62090;52.330;9.104;2023-02-10T04:00:14;102880.38;;;3.84;96.37
3132;BME280;62090;52.330;9.104;2023-02-10T04:02:47;102871.19;;;3.85;95.85
3132;BME280;62090;52.330;9.104;2023-02-10T04:05:17;102826.34;;;3.62;95.87
3132;BME280;62090;52.330;9.104;2023-02-10T04:07:47;102876.41;;;3.96;95.46
3132;BME280;62090;52.330;9.104;2023-02-10T04:10:17;102866.38;;;3.88;95.30
3132;BME280;62090;52.330;9.104;2023-02-10T04:12:47;102823.59;;;3.69;95.53
3132;BME280;62090;52.330;9.104;2023-02-10T04:15:18;102867.78;;;3.94;95.35
3132;BME280;62090;52.330;9.104;2023-02-10T04:17:50;102831.94;;;3.78;95.38
3132;BME280;62090;52.330;9.104;2023-02-10T04:20:20;102866.69;;;4.01;94.22
3132;BME280;62090;52.330;9.104;2023-02-10T04:22:50;102856.69;;;3.92;94.25
3132;BME280;62090;52.330;9.104;2023-02-10T04:25:20;102884.22;;;4.09;94.31
3132;BME280;62090;52.330;9.104;2023-02-10T04:27:50;102740.00;;;3.15;94.55
3132;BME280;62090;52.330;9.104;2023-02-10T04:30:19;102825.91;;;3.47;95.89
3132;BME280;62090;52.330;9.104;2023-02-10T04:32:52;102821.72;;;3.37;95.69
3132;BME280;62090;52.330;9.104;2023-02-10T04:35:22;102871.72;;;3.62;97.00
3132;BME280;62090;52.330;9.104;2023-02-10T04:37:51;102870.25;;;3.74;96.66
3132;BME280;62090;52.330;9.104;2023-02-10T04:40:22;102862.06;;;3.76;96.30
3132;BME280;62090;52.330;9.104;2023-02-10T04:42:52;102859.69;;;3.78;95.71
3132;BME280;62090;52.330;9.104;2023-02-10T04:45:22;102890.75;;;3.97;94.93
3132;BME280;62090;52.330;9.104;2023-02-10T04:47:55;102882.63;;;3.81;96.27
3132;BME280;62090;52.330;9.104;2023-02-10T04:50:25;102885.13;;;3.81;97.10
3132;BME280;62090;52.330;9.104;2023-02-10T04:52:55;102855.31;;;3.57;97.15
3132;BME280;62090;52.330;9.104;2023-02-10T04:55:25;102892.13;;;3.65;98.73
3132;BME280;62090;52.330;9.104;2023-02-10T04:57:54;102863.22;;;3.51;99.48
3132;BME280;62090;52.330;9.104;2023-02-10T05:00:24;102886.59;;;3.59;100.00
3132;BME280;62090;52.330;9.104;2023-02-10T05:02:57;102855.53;;;3.50;100.00
3132;BME280;62090;52.330;9.104;2023-02-10T05:05:26;102861.84;;;3.55;99.42
3132;BME280;62090;52.330;9.104;2023-02-10T05:07:56;102849.38;;;3.56;98.94
3132;BME280;62090;52.330;9.104;2023-02-10T05:10:26;102876.75;;;3.62;98.72
3132;BME280;62090;52.330;9.104;2023-02-10T05:12:55;102872.81;;;3.55;99.85
3132;BME280;62090;52.330;9.104;2023-02-10T05:15:25;102857.66;;;3.45;99.98
3132;BME280;62090;52.330;9.104;2023-02-10T05:17:58;102895.91;;;3.60;99.96
3132;BME280;62090;52.330;9.104;2023-02-10T05:20:27;102908.56;;;3.70;100.00
3132;BME280;62090;52.330;9.104;2023-02-10T05:22:57;102915.97;;;3.58;99.91
3132;BME280;62090;52.330;9.104;2023-02-10T05:25:27;102896.28;;;3.35;100.00
3132;BME280;62090;52.330;9.104;2023-02-10T05:27:57;102891.66;;;3.40;100.00
3132;BME280;62090;52.330;9.104;2023-02-10T05:30:26;102852.13;;;3.20;100.00
3132;BME280;62090;52.330;9.104;2023-02-10T05:32:59;102854.91;;;3.23;100.00
3132;BME280;62090;52.330;9.104;2023-02-10T05:35:28;102924.16;;;3.66;100.00
3132;BME280;62090;52.330;9.104;2023-02-10T05:37:58;102925.94;;;3.67;100.00
3132;BME280;62090;52.330;9.104;2023-02-10T05:40:30;102846.53;;;3.14;100.00
3132;BME280;62090;52.330;9.104;2023-02-10T05:42:59;102943.09;;;3.71;100.00
3132;BME280;62090;52.330;9.104;2023-02-10T05:45:29;102880.56;;;3.38;100.00
3132;BME280;62090;52.330;9.104;2023-02-10T05:48:02;102881.72;;;3.42;99.37
3132;BME280;62090;52.330;9.104;2023-02-10T05:50:32;102877.03;;;3.36;99.89
3132;BME280;62090;52.330;9.104;2023-02-10T05:53:13;102875.53;;;3.19;100.00
3132;BME280;62090;52.330;9.104;2023-02-10T05:55:44;102884.00;;;3.20;100.00
3132;BME280;62090;52.330;9.104;2023-02-10T05:58:15;102885.56;;;3.09;100.00
3132;BME280;62090;52.330;9.104;2023-02-10T06:00:44;102947.94;;;3.30;100.00
3132;BME280;62090;52.330;9.104;2023-02-10T06:03:17;102941.19;;;3.21;100.00
3132;BME280;62090;52.330;9.104;2023-02-10T06:05:46;102957.19;;;3.21;100.00
3132;BME280;62090;52.330;9.104;2023-02-10T06:08:17;102817.06;;;2.38;100.00
3132;BME280;62090;52.330;9.104;2023-02-10T06:10:47;102936.41;;;3.05;100.00
3132;BME280;62090;52.330;9.104;2023-02-10T06:13:16;102924.16;;;3.00;100.00
3132;BME280;62090;52.330;9.104;2023-02-10T06:15:46;102806.50;;;2.24;100.00
3132;BME280;62090;52.330;9.104;2023-02-10T06:18:19;102944.00;;;2.96;100.00
3132;BME280;62090;52.330;9.104;2023-02-10T06:20:49;102954.22;;;2.98;100.00
3132;BME280;62090;52.330;9.104;2023-02-10T06:23:19;102841.97;;;2.35;100.00
3132;BME280;62090;52.330;9.104;2023-02-10T06:25:49;102850.41;;;2.36;100.00
3132;BME280;62090;52.330;9.104;2023-02-10T06:28:21;102936.19;;;2.75;100.00
3132;BME280;62090;52.330;9.104;2023-02-10T06:30:54;102894.00;;;2.45;100.00
3132;BME280;62090;52.330;9.104;2023-02-10T06:33:27;102953.03;;;2.76;100.00
3132;BME280;62090;52.330;9.104;2023-02-10T06:35:56;102863.72;;;2.35;100.00
3132;BME280;62090;52.330;9.104;2023-02-10T06:38:29;102767.06;;;1.87;100.00
3132;BME280;62090;52.330;9.104;2023-02-10T06:40:59;102750.78;;;1.64;100.00
3132;BME280;62090;52.330;9.104;2023-02-10T06:43:29;102970.72;;;2.94;100.00
3132;BME280;62090;52.330;9.104;2023-02-10T06:45:58;102981.34;;;3.01;100.00
3132;BME280;62090;52.330;9.104;2023-02-10T06:48:31;102948.28;;;2.79;100.00
3132;BME280;62090;52.330;9.104;2023-02-10T06:51:00;102949.78;;;2.77;100.00
3132;BME280;62090;52.330;9.104;2023-02-10T06:53:30;102804.13;;;1.98;100.00
3132;BME280;62090;52.330;9.104;2023-02-10T06:56:00;102900.53;;;2.43;100.00
3132;BME280;62090;52.330;9.104;2023-02-10T06:58:30;102954.97;;;2.78;100.00
3132;BME280;62090;52.330;9.104;2023-02-10T07:00:59;102977.56;;;2.87;100.00
3132;BME280;62090;52.330;9.104;2023-02-10T07:03:33;102944.25;;;2.81;100.00
3132;BME280;62090;52.330;9.104;2023-02-10T07:06:04;102988.13;;;3.02;100.00
3132;BME280;62090;52.330;9.104;2023-02-10T07:08:34;102943.91;;;2.68;100.00
3132;BME280;62090;52.330;9.104;2023-02-10T07:11:04;102937.84;;;2.66;100.00
3132;BME280;62090;52.330;9.104;2023-02-10T07:13:34;102975.19;;;2.88;100.00
3132;BME280;62090;52.330;9.104;2023-02-10T07:16:04;102910.22;;;2.57;100.00
3132;BME280;62090;52.330;9.104;2023-02-10T07:18:39;102940.75;;;2.79;100.00
3132;BME280;62090;52.330;9.104;2023-02-10T07:21:10;102807.88;;;1.93;100.00
3132;BME280;62090;52.330;9.104;2023-02-10T07:23:40;102933.28;;;2.62;100.00
3132;BME280;62090;52.330;9.104;2023-02-10T07:26:13;102808.44;;;1.99;100.00
3132;BME280;62090;52.330;9.104;2023-02-10T07:28:58;103001.59;;;3.02;100.00
3132;BME280;62090;52.330;9.104;2023-02-10T07:31:32;102758.03;;;1.61;100.00
3132;BME280;62090;52.330;9.104;2023-02-10T07:34:06;102890.47;;;2.43;100.00
3132;BME280;62090;52.330;9.104;2023-02-10T07:36:36;102722.28;;;1.55;100.00
3132;BME280;62090;52.330;9.104;2023-02-10T07:39:06;102898.88;;;2.43;100.00
3132;BME280;62090;52.330;9.104;2023-02-10T07:41:37;102927.28;;;2.70;100.00
3132;BME280;62090;52.330;9.104;2023-02-10T07:44:07;102970.38;;;3.00;100.00
3132;BME280;62090;52.330;9.104;2023-02-10T07:46:37;102890.16;;;2.48;100.00
3132;BME280;62090;52.330;9.104;2023-02-10T07:49:10;103000.75;;;3.20;100.00
3132;BME280;62090;52.330;9.104;2023-02-10T07:51:39;102969.72;;;3.11;100.00
3132;BME280;62090;52.330;9.104;2023-02-10T07:54:09;102996.53;;;3.29;100.00
3132;BME280;62090;52.330;9.104;2023-02-10T07:56:41;102876.63;;;2.75;100.00
3132;BME280;62090;52.330;9.104;2023-02-10T07:59:11;103000.28;;;3.62;100.00
3132;BME280;62090;52.330;9.104;2023-02-10T08:01:41;102956.56;;;3.24;100.00
3132;BME280;62090;52.330;9.104;2023-02-10T08:04:14;102952.53;;;3.45;100.00
3132;BME280;62090;52.330;9.104;2023-02-10T08:06:44;102918.31;;;3.09;100.00
3132;BME280;62090;52.330;9.104;2023-02-10T08:09:14;102878.34;;;3.04;100.00
3132;BME280;62090;52.330;9.104;2023-02-10T08:11:44;102950.78;;;3.44;100.00
3132;BME280;62090;52.330;9.104;2023-02-10T08:14:15;103049.53;;;3.96;100.00
3132;BME280;62090;52.330;9.104;2023-02-10T08:16:46;102899.44;;;3.14;100.00
3132;BME280;62090;52.330;9.104;2023-02-10T08:19:19;102924.28;;;3.20;100.00
3132;BME280;62090;52.330;9.104;2023-02-10T08:21:49;102944.31;;;3.18;100.00
3132;BME280;62090;52.330;9.104;2023-02-10T08:24:19;102818.47;;;2.53;100.00
3132;BME280;62090;52.330;9.104;2023-02-10T08:26:49;103047.44;;;3.81;100.00
3132;BME280;62090;52.330;9.104;2023-02-10T08:29:19;102895.75;;;2.92;100.00
3132;BME280;62090;52.330;9.104;2023-02-10T08:31:49;102942.81;;;3.20;100.00
3132;BME280;62090;52.330;9.104;2023-02-10T08:34:22;103044.09;;;3.91;100.00
3132;BME280;62090;52.330;9.104;2023-02-10T08:36:52;102975.16;;;4.01;100.00
3132;BME280;62090;52.330;9.104;2023-02-10T08:39:27;102970.03;;;3.80;100.00
3132;BME280;62090;52.330;9.104;2023-02-10T08:41:57;102993.03;;;3.94;100.00
3132;BME280;62090;52.330;9.104;2023-02-10T08:44:27;103009.41;;;3.89;100.00
3132;BME280;62090;52.330;9.104;2023-02-10T08:46:57;102929.53;;;3.31;100.00
3132;BME280;62090;52.330;9.104;2023-02-10T08:49:29;102976.50;;;3.50;100.00
3132;BME280;62090;52.330;9.104;2023-02-10T08:52:56;103052.63;;;4.02;100.00
3132;BME280;62090;52.330;9.104;2023-02-10T08:56:06;102966.56;;;3.70;100.00
3132;BME280;62090;52.330;9.104;2023-02-10T08:58:56;103048.53;;;4.22;100.00
3132;BME280;62090;52.330;9.104;2023-02-10T09:01:50;103046.78;;;4.21;100.00
3132;BME280;62090;52.330;9.104;2023-02-10T09:04:42;102796.06;;;2.75;100.00
3132;BME280;62090;52.330;9.104;2023-02-10T09:07:46;102766.28;;;2.61;100.00
3132;BME280;62090;52.330;9.104;2023-02-10T09:10:17;102685.72;;;2.13;100.00
3132;BME280;62090;52.330;9.104;2023-02-10T09:12:58;102929.44;;;3.59;100.00
3132;BME280;62090;52.330;9.104;2023-02-10T09:16:26;103064.38;;;4.11;100.00
3132;BME280;62090;52.330;9.104;2023-02-10T09:19:25;102940.47;;;3.51;100.00
3132;BME280;62090;52.330;9.104;2023-02-10T09:21:58;102968.16;;;3.59;100.00
3132;BME280;62090;52.330;9.104;2023-02-10T09:24:28;102966.34;;;3.77;100.00
3132;BME280;62090;52.330;9.104;2023-02-10T09:27:16;102987.09;;;3.93;100.00
3132;BME280;62090;52.330;9.104;2023-02-10T09:30:08;103045.06;;;4.41;100.00
3132;BME280;62090;52.330;9.104;2023-02-10T09:36:44;102875.34;;;3.55;100.00
3132;BME280;62090;52.330;9.104;2023-02-10T09:39:37;103052.22;;;4.65;100.00
3132;BME280;62090;52.330;9.104;2023-02-10T09:42:20;102975.84;;;4.29;100.00
3132;BME280;62090;52.330;9.104;2023-02-10T09:44:56;103071.19;;;4.70;100.00
3132;BME280;62090;52.330;9.104;2023-02-10T09:47:36;102953.97;;;4.09;100.00
3132;BME280;62090;52.330;9.104;2023-02-10T09:50:41;102848.41;;;3.54;100.00
3132;BME280;62090;52.330;9.104;2023-02-10T09:53:33;103074.28;;;5.06;100.00
3132;BME280;62090;52.330;9.104;2023-02-10T09:59:20;102913.81;;;4.51;100.00
3132;BME280;62090;52.330;9.104;2023-02-10T10:01:56;103068.34;;;5.26;100.00
3132;BME280;62090;52.330;9.104;2023-02-10T10:04:31;103039.91;;;5.08;100.00
3132;BME280;62090;52.330;9.104;2023-02-10T10:07:10;103006.28;;;4.89;100.00
3132;BME280;62090;52.330;9.104;2023-02-10T10:09:44;103055.19;;;5.10;100.00
3132;BME280;62090;52.330;9.104;2023-02-10T10:12:16;102997.69;;;4.87;100.00
3132;BME280;62090;52.330;9.104;2023-02-10T10:14:49;103004.66;;;5.10;100.00
3132;BME280;62090;52.330;9.104;2023-02-10T10:17:42;102884.50;;;4.12;100.00
3132;BME280;62090;52.330;9.104;2023-02-10T10:20:39;103074.00;;;5.03;100.00
3132;BME280;62090;52.330;9.104;2023-02-10T10:23:23;103079.22;;;5.15;100.00
3132;BME280;62090;52.330;9.104;2023-02-10T10:29:15;103049.25;;;5.09;100.00
3132;BME280;62090;52.330;9.104;2023-02-10T10:31:59;103043.06;;;5.36;100.00
3132;BME280;62090;52.330;9.104;2023-02-10T10:34:39;103075.81;;;5.25;100.00
3132;BME280;62090;52.330;9.104;2023-02-10T10:37:15;102994.41;;;4.78;100.00
3132;BME280;62090;52.330;9.104;2023-02-10T10:39:48;103078.91;;;5.83;100.00
3132;BME280;62090;52.330;9.104;2023-02-10T10:42:22;103053.41;;;5.90;100.00
3132;BME280;62090;52.330;9.104;2023-02-10T10:44:57;103031.56;;;5.60;99.43
3132;BME280;62090;52.330;9.104;2023-02-10T10:47:38;102918.63;;;4.78;99.63
3132;BME280;62090;52.330;9.104;2023-02-10T10:50:13;103038.16;;;5.18;100.00
3132;BME280;62090;52.330;9.104;2023-02-10T10:52:45;103034.22;;;5.31;100.00
3132;BME280;62090;52.330;9.104;2023-02-10T10:55:22;103026.25;;;5.37;100.00
3132;BME280;62090;52.330;9.104;2023-02-10T10:57:55;103035.59;;;5.48;100.00
3132;BME280;62090;52.330;9.104;2023-02-10T11:00:27;103025.34;;;5.46;100.00
3132;BME280;62090;52.330;9.104;2023-02-10T11:03:04;102960.06;;;5.10;98.88
3132;BME280;62090;52.330;9.104;2023-02-10T11:05:37;103002.88;;;5.29;98.59
3132;BME280;62090;52.330;9.104;2023-02-10T11:08:07;103060.38;;;5.62;99.63
3132;BME280;62090;52.330;9.104;2023-02-10T11:10:46;103014.38;;;5.36;99.80
3132;BME280;62090;52.330;9.104;2023-02-10T11:13:17;103049.72;;;5.66;99.37
3132;BME280;62090;52.330;9.104;2023-02-10T11:15:49;102944.50;;;5.16;99.28
3132;BME280;62090;52.330;9.104;2023-02-10T11:18:31;103041.75;;;5.72;99.47
3132;BME280;62090;52.330;9.104;2023-02-10T11:21:03;103012.19;;;5.50;97.96
3132;BME280;62090;52.330;9.104;2023-02-10T11:23:36;103022.94;;;5.58;98.33
3132;BME280;62090;52.330;9.104;2023-02-10T11:26:15;103028.22;;;5.81;97.27
3132;BME280;62090;52.330;9.104;2023-02-10T11:28:46;102974.56;;;5.43;97.61
3132;BME280;62090;52.330;9.104;2023-02-10T11:31:26;103012.16;;;5.81;97.73
3132;BME280;62090;52.330;9.104;2023-02-10T11:34:04;103013.81;;;5.90;97.60
3132;BME280;62090;52.330;9.104;2023-02-10T11:36:37;102978.28;;;5.69;96.50
3132;BME280;62090;52.330;9.104;2023-02-10T11:39:19;103012.16;;;5.81;97.50
3132;BME280;62090;52.330;9.104;2023-02-10T11:41:50;102997.84;;;5.91;97.78
3132;BME280;62090;52.330;9.104;2023-02-10T11:44:24;103009.16;;;6.17;97.13
3132;BME280;62090;52.330;9.104;2023-02-10T11:46:57;103011.28;;;6.22;95.79
3132;BME280;62090;52.330;9.104;2023-02-10T11:49:30;103011.84;;;6.30;95.22
3132;BME280;62090;52.330;9.104;2023-02-10T11:52:02;103003.28;;;6.28;94.67
3132;BME280;62090;52.330;9.104;2023-02-10T11:54:32;103015.63;;;6.35;94.33
3132;BME280;62090;52.330;9.104;2023-02-10T11:57:14;103010.06;;;6.39;93.87
3132;BME280;62090;52.330;9.104;2023-02-10T12:00:06;103007.25;;;6.36;94.32
3132;BME280;62090;52.330;9.104;2023-02-10T12:03:01;103009.53;;;6.43;93.41
3132;BME280;62090;52.330;9.104;2023-02-10T12:05:44;102999.44;;;6.33;93.08
3132;BME280;62090;52.330;9.104;2023-02-10T12:08:20;102959.75;;;6.22;93.38
3132;BME280;62090;52.330;9.104;2023-02-10T12:10:56;103006.94;;;6.53;93.02
3132;BME280;62090;52.330;9.104;2023-02-10T12:13:35;102991.25;;;6.47;93.07
3132;BME280;62090;52.330;9.104;2023-02-10T12:16:18;102992.25;;;6.71;92.39
3132;BME280;62090;52.330;9.104;2023-02-10T12:18:58;102995.91;;;6.74;92.10
3132;BME280;62090;52.330;9.104;2023-02-10T12:21:52;102997.13;;;6.79;91.51
3132;BME280;62090;52.330;9.104;2023-02-10T12:24:37;102972.72;;;6.92;91.61
3132;BME280;62090;52.330;9.104;2023-02-10T12:27:14;102968.28;;;6.89;90.47
3132;BME280;62090;52.330;9.104;2023-02-10T12:29:55;102961.34;;;6.87;90.09
3132;BME280;62090;52.330;9.104;2023-02-10T12:32:38;102943.66;;;6.65;89.85
3132;BME280;62090;52.330;9.104;2023-02-10T12:35:25;102978.75;;;6.94;89.34
3132;BME280;62090;52.330;9.104;2023-02-10T12:38:08;102976.69;;;7.00;88.25
3132;BME280;62090;52.330;9.104;2023-02-10T12:41:02;102951.63;;;6.93;89.12
3132;BME280;62090;52.330;9.104;2023-02-10T12:43:45;102958.19;;;7.01;89.25
3132;BME280;62090;52.330;9.104;2023-02-10T12:46:25;102938.34;;;7.07;89.26
3132;BME280;62090;52.330;9.104;2023-02-10T12:49:08;102947.63;;;7.30;87.89
3132;BME280;62090;52.330;9.104;2023-02-10T12:51:48;102904.84;;;7.11;86.67
3132;BME280;62090;52.330;9.104;2023-02-10T12:54:24;102948.41;;;7.40;87.06
3132;BME280;62090;52.330;9.104;2023-02-10T12:57:12;102895.44;;;7.80;83.05
3132;BME280;62090;52.330;9.104;2023-02-10T12:59:51;102903.88;;;7.32;85.66
3132;BME280;62090;52.330;9.104;2023-02-10T13:02:27;102939.47;;;7.57;86.67
3132;BME280;62090;52.330;9.104;2023-02-10T13:05:04;102930.44;;;7.49;86.56
3132;BME280;62090;52.330;9.104;2023-02-10T13:07:42;102920.06;;;7.57;85.68
3132;BME280;62090;52.330;9.104;2023-02-10T13:10:26;102920.06;;;7.57;85.26
3132;BME280;62090;52.330;9.104;2023-02-10T13:13:00;102887.06;;;7.46;85.65
3132;BME280;62090;52.330;9.104;2023-02-10T13:15:35;102915.88;;;7.58;85.92
3132;BME280;62090;52.330;9.104;2023-02-10T13:18:17;102889.75;;;7.36;85.46
3132;BME280;62090;52.330;9.104;2023-02-10T13:20:54;102911.22;;;7.87;83.84
3132;BME280;62090;52.330;9.104;2023-02-10T13:23:33;102890.94;;;7.52;85.24
3132;BME280;62090;52.330;9.104;2023-02-10T13:26:27;102918.41;;;7.58;85.17
3132;BME280;62090;52.330;9.104;2023-02-10T13:29:10;102843.13;;;7.22;84.99
3132;BME280;62090;52.330;9.104;2023-02-10T13:32:00;102900.44;;;7.43;84.92
3132;BME280;62090;52.330;9.104;2023-02-10T13:34:36;102910.59;;;7.55;85.61
3132;BME280;62090;52.330;9.104;2023-02-10T13:37:14;102878.38;;;7.42;84.41
3132;BME280;62090;52.330;9.104;2023-02-10T13:39:50;102888.50;;;7.66;84.96
3132;BME280;62090;52.330;9.104;2023-02-10T13:42:27;102841.53;;;7.47;83.70
3132;BME280;62090;52.330;9.104;2023-02-10T13:44:59;102878.38;;;7.66;83.23
3132;BME280;62090;52.330;9.104;2023-02-10T13:47:35;102880.34;;;7.70;82.36
3132;BME280;62090;52.330;9.104;2023-02-10T13:50:15;102887.84;;;7.68;83.13
3132;BME280;62090;52.330;9.104;2023-02-10T13:52:51;102845.72;;;7.35;82.40
3132;BME280;62090;52.330;9.104;2023-02-10T13:55:38;102869.44;;;7.47;81.13
3132;BME280;62090;52.330;9.104;2023-02-10T13:58:35;102828.66;;;7.21;81.09
3132;BME280;62090;52.330;9.104;2023-02-10T14:01:29;102891.81;;;7.64;80.00
3132;BME280;62090;52.330;9.104;2023-02-10T14:03:59;102869.13;;;7.43;81.03
3132;BME280;62090;52.330;9.104;2023-02-10T14:06:35;102838.69;;;7.31;79.91